Time;durP1;ratioP1;P1;durP2;ratioP2;P2;SDS_P1;SDS_P2;PMS_P1;PMS_P2;Temp;Humidity;BMP_temperature;BMP_pressure;BME280_temperature;BME280_humidity;BME280_pressure;Samples;Min_cycle;Max_cycle;Signal;HPM_P1;HPM_P2
2021/06/01 07:11:04;;;;;;;1.40;1.20;;;29.20;73.60;;;;;;4914964;29;20236;-75
2021/06/01 07:13:41;;;;;;;3.00;1.20;;;29.00;74.60;;;;;;4913193;29;20232;-80
2021/06/01 07:16:07;;;;;;;2.63;1.40;;;28.40;73.30;;;;;;4907759;29;20722;-85
2021/06/01 07:18:37;;;;;;;1.80;1.40;;;28.80;74.40;;;;;;4896952;29;20211;-83
2021/06/01 07:21:04;;;;;;;4.00;1.95;;;28.80;74.50;;;;;;4897218;29;20238;-89
2021/06/01 07:23:30;;;;;;;3.35;1.17;;;28.50;74.40;;;;;;4898051;29;20214;-86
2021/06/01 07:25:57;;;;;;;3.38;1.60;;;28.70;73.60;;;;;;4897857;29;20237;-81
2021/06/01 07:28:24;;;;;;;2.08;1.17;;;28.00;74.90;;;;;;4896802;29;20242;-85
2021/06/01 07:30:51;;;;;;;1.30;1.10;;;27.90;74.00;;;;;;4897549;29;20617;-85
2021/06/01 07:33:17;;;;;;;1.58;1.27;;;28.20;73.70;;;;;;4896761;29;20329;-83
2021/06/01 07:35:43;;;;;;;2.00;1.00;;;27.60;74.00;;;;;;4896318;29;20231;-79
2021/06/01 07:38:12;;;;;;;1.80;1.30;;;27.70;73.60;;;;;;4899004;29;20206;-86
2021/06/01 07:40:39;;;;;;;1.75;1.30;;;27.60;73.50;;;;;;4891433;29;20660;-76
2021/06/01 07:43:05;;;;;;;2.08;1.08;;;27.90;74.50;;;;;;4894170;29;20206;-72
2021/06/01 07:45:33;;;;;;;1.52;1.10;;;27.90;73.30;;;;;;4896867;29;20238;-73
2021/06/01 07:48:00;;;;;;;2.58;1.30;;;27.40;72.10;;;;;;4892101;29;20215;-80
2021/06/01 07:50:26;;;;;;;1.80;1.30;;;28.10;73.50;;;;;;4879795;29;20669;-76
2021/06/01 07:52:53;;;;;;;1.20;0.90;;;28.20;72.60;;;;;;4896786;29;20337;-79
2021/06/01 07:55:20;;;;;;;1.65;0.90;;;28.70;71.20;;;;;;4896723;29;20760;-84
2021/06/01 07:57:46;;;;;;;1.55;1.15;;;28.20;71.20;;;;;;4896098;29;20661;-76
2021/06/01 08:00:14;;;;;;;4.68;1.00;;;28.20;69.80;;;;;;4896150;29;20293;-83
2021/06/01 08:02:42;;;;;;;1.50;0.98;;;27.60;70.80;;;;;;4895969;29;20214;-83
2021/06/01 08:05:10;;;;;;;2.10;1.20;;;27.10;72.00;;;;;;4895921;29;20222;-87
2021/06/01 08:07:37;;;;;;;1.20;0.90;;;27.30;72.80;;;;;;4897162;29;20221;-72
2021/06/01 08:10:04;;;;;;;2.72;1.27;;;26.90;69.70;;;;;;4899971;29;20217;-81
2021/06/01 08:12:31;;;;;;;1.50;1.20;;;26.60;70.50;;;;;;4899546;29;20249;-72
2021/06/01 08:14:58;;;;;;;2.58;1.17;;;26.70;70.70;;;;;;4899932;29;20688;-83
2021/06/01 08:17:24;;;;;;;2.00;1.08;;;26.70;69.80;;;;;;4900447;29;20214;-83
2021/06/01 08:19:54;;;;;;;1.30;1.10;;;27.00;68.60;;;;;;4899879;29;20309;-79
2021/06/01 08:22:30;;;;;;;1.33;1.00;;;26.70;70.50;;;;;;4900040;29;20289;-76
2021/06/01 08:24:57;;;;;;;1.25;0.93;;;27.10;69.80;;;;;;4899650;29;20216;-75
2021/06/01 08:27:23;;;;;;;1.92;1.00;;;27.20;70.10;;;;;;4898973;29;20210;-74
2021/06/01 08:29:50;;;;;;;1.20;0.90;;;26.80;67.20;;;;;;4900029;29;20219;-76
2021/06/01 08:32:16;;;;;;;2.17;1.00;;;26.60;69.70;;;;;;4899461;29;20250;-74
2021/06/01 08:34:42;;;;;;;1.02;0.90;;;26.30;68.70;;;;;;4899247;29;20222;-78
2021/06/01 08:37:10;;;;;;;1.27;0.93;;;26.90;68.20;;;;;;4898763;29;20230;-74
2021/06/01 08:39:37;;;;;;;1.17;1.00;;;26.70;67.10;;;;;;4899293;29;20206;-83
2021/06/01 08:42:04;;;;;;;2.65;1.17;;;26.50;69.80;;;;;;4899548;29;20214;-76
2021/06/01 08:44:31;;;;;;;1.50;1.05;;;26.20;69.00;;;;;;4899845;29;20326;-75
2021/06/01 08:46:57;;;;;;;1.42;0.95;;;26.30;70.40;;;;;;4899669;29;20289;-85
2021/06/01 08:49:24;;;;;;;1.00;0.90;;;26.80;69.60;;;;;;4899204;29;20492;-73
2021/06/01 08:51:50;;;;;;;1.38;1.00;;;26.90;67.30;;;;;;4899033;29;20210;-73
2021/06/01 08:54:18;;;;;;;3.65;0.98;;;27.00;66.10;;;;;;4899395;29;20214;-74
2021/06/01 08:56:44;;;;;;;1.40;1.20;;;26.60;66.00;;;;;;4898769;29;20988;-74
2021/06/01 08:59:12;;;;;;;1.52;0.98;;;26.10;66.40;;;;;;4899414;29;20214;-78
2021/06/01 09:01:38;;;;;;;2.88;1.00;;;25.70;66.80;;;;;;4900173;29;20210;-77
2021/06/01 09:04:09;;;;;;;1.33;0.90;;;26.40;66.90;;;;;;4900691;29;20206;-81
2021/06/01 09:06:38;;;;;;;1.77;1.08;;;26.60;66.00;;;;;;4900180;29;20234;-80
2021/06/01 09:12:09;;;;;;;1.48;1.00;;;26.60;66.00;;;;;;4853074;29;20251;-76
2021/06/01 09:23:08;;;;;;;1.55;0.82;;;25.80;65.10;;;;;;4898525;29;20210;-79
2021/06/01 09:25:39;;;;;;;2.63;0.90;;;25.70;65.50;;;;;;4898113;29;20570;-76
2021/06/01 09:28:08;;;;;;;3.88;1.23;;;25.50;66.50;;;;;;4898772;29;20305;-77
2021/06/01 09:30:37;;;;;;;0.77;0.73;;;25.20;68.50;;;;;;4898425;29;20603;-78
2021/06/01 09:33:06;;;;;;;3.85;0.88;;;25.60;66.60;;;;;;4898089;29;20601;-77
2021/06/01 09:35:49;;;;;;;1.33;0.70;;;25.10;67.00;;;;;;4899079;29;20589;-78
2021/06/01 09:38:17;;;;;;;1.60;0.95;;;24.70;66.60;;;;;;4898236;29;20218;-79
2021/06/01 09:40:44;;;;;;;2.25;0.90;;;24.50;66.60;;;;;;4898206;29;20239;-82
2021/06/01 09:43:13;;;;;;;1.45;0.70;;;24.70;68.40;;;;;;4899180;29;20570;-80
2021/06/01 09:45:40;;;;;;;1.80;0.80;;;24.40;65.70;;;;;;4897873;29;20238;-77
2021/06/01 09:48:08;;;;;;;1.42;0.93;;;24.10;66.80;;;;;;4898607;29;20215;-77
2021/06/01 09:50:44;;;;;;;3.05;1.08;;;24.20;67.10;;;;;;4899773;29;20210;-77
2021/06/01 09:53:16;;;;;;;1.10;0.90;;;24.40;68.50;;;;;;4899794;29;20249;-77
2021/06/01 09:55:46;;;;;;;1.20;0.90;;;24.60;66.60;;;;;;4899697;29;20230;-77
2021/06/01 09:58:16;;;;;;;2.28;0.73;;;24.70;66.90;;;;;;4899828;29;20214;-77
2021/06/01 10:00:44;;;;;;;3.55;1.20;;;24.80;68.10;;;;;;4899176;29;20246;-78
2021/06/01 10:03:15;;;;;;;1.40;1.00;;;24.50;70.00;;;;;;4899279;29;20588;-77
2021/06/01 10:05:41;;;;;;;1.00;0.90;;;24.00;69.60;;;;;;4899437;29;20242;-76
2021/06/01 10:08:13;;;;;;;1.30;0.95;;;23.70;70.60;;;;;;4899309;29;20673;-77
2021/06/01 10:10:40;;;;;;;3.17;1.20;;;23.70;73.90;;;;;;4899179;29;20691;-77
2021/06/01 10:13:08;;;;;;;1.02;0.82;;;23.80;73.30;;;;;;4899308;29;20242;-78
2021/06/01 10:15:37;;;;;;;1.30;0.95;;;23.90;73.30;;;;;;4899235;29;20242;-75
2021/06/01 10:18:05;;;;;;;1.63;1.08;;;23.90;70.00;;;;;;4899364;29;20226;-77
2021/06/01 10:20:34;;;;;;;1.63;1.00;;;24.00;71.00;;;;;;4899298;29;20321;-77
2021/06/01 10:23:01;;;;;;;1.15;1.00;;;24.00;71.80;;;;;;4899182;29;20541;-76
2021/06/01 10:25:27;;;;;;;1.42;1.00;;;23.80;71.60;;;;;;4898980;29;20230;-78
2021/06/01 10:27:58;;;;;;;1.52;1.02;;;23.80;70.50;;;;;;4899122;29;20210;-77
2021/06/01 10:30:26;;;;;;;1.15;0.95;;;23.80;72.10;;;;;;4898748;29;20211;-78
2021/06/01 10:32:58;;;;;;;1.10;0.90;;;23.80;72.20;;;;;;4898248;29;20249;-77
2021/06/01 10:35:30;;;;;;;1.35;1.10;;;23.60;73.10;;;;;;4898803;29;20270;-77
2021/06/01 10:44:16;;;;;;;1.83;0.90;;;23.60;72.50;;;;;;4893186;29;20228;-77
2021/06/01 10:52:31;;;;;;;1.40;0.90;;;23.80;72.30;;;;;;4880479;29;20581;-77
2021/06/01 10:55:15;;;;;;;1.35;1.05;;;24.00;74.50;;;;;;4879507;29;20215;-77
2021/06/01 10:57:59;;;;;;;1.85;0.75;;;24.10;73.50;;;;;;4880482;29;20214;-76
2021/06/01 11:03:14;;;;;;;1.85;1.02;;;24.50;70.20;;;;;;4891109;29;20235;-78
2021/06/01 11:06:03;;;;;;;1.23;0.90;;;23.90;70.20;;;;;;4892188;29;20238;-78
2021/06/01 11:08:37;;;;;;;1.38;1.02;;;23.90;73.00;;;;;;4890240;29;20211;-77
2021/06/01 11:11:32;;;;;;;4.22;1.00;;;23.90;72.40;;;;;;4888663;29;20210;-79
2021/06/01 11:14:00;;;;;;;2.78;1.05;;;23.90;70.50;;;;;;4888970;29;20239;-78
2021/06/01 11:16:47;;;;;;;1.08;0.90;;;23.90;74.00;;;;;;4887937;29;20646;-77
2021/06/01 11:19:14;;;;;;;1.13;0.82;;;24.00;70.80;;;;;;4889053;29;20736;-79
2021/06/01 11:21:58;;;;;;;1.35;0.88;;;24.00;72.50;;;;;;4892492;29;20293;-78
2021/06/01 11:32:58;;;;;;;2.10;0.90;;;23.80;70.10;;;;;;4884981;29;20242;-79
2021/06/01 11:35:26;;;;;;;2.45;1.00;;;23.90;71.50;;;;;;4896844;29;20233;-77
2021/06/01 11:38:00;;;;;;;1.92;1.35;;;24.10;71.60;;;;;;4889247;29;20683;-77
2021/06/01 11:40:32;;;;;;;1.02;0.93;;;24.30;71.20;;;;;;4893125;29;20202;-76
2021/06/01 11:43:09;;;;;;;1.52;0.90;;;24.00;68.60;;;;;;4894070;29;20213;-77
2021/06/01 11:45:44;;;;;;;1.95;1.00;;;23.80;69.50;;;;;;4889635;29;20309;-77
2021/06/01 11:48:24;;;;;;;2.30;0.90;;;24.00;70.30;;;;;;4887184;29;20605;-78
2021/06/01 11:51:11;;;;;;;1.13;0.90;;;24.00;71.20;;;;;;4883518;29;20669;-77
2021/06/01 11:53:47;;;;;;;1.17;1.08;;;24.10;69.20;;;;;;4889292;29;20278;-78
2021/06/01 11:56:14;;;;;;;1.15;0.80;;;24.10;69.70;;;;;;4891233;29;20284;-77
2021/06/01 12:04:35;;;;;;;4.90;1.02;;;24.10;72.00;;;;;;4897530;29;20221;-77
2021/06/01 12:12:55;;;;;;;2.00;1.00;;;24.30;72.00;;;;;;4856627;29;20629;-81
2021/06/01 12:18:16;;;;;;;1.20;1.10;;;24.60;70.60;;;;;;4881113;29;20635;-74
2021/06/01 12:20:42;;;;;;;1.02;0.80;;;24.60;69.80;;;;;;4896943;29;20618;-76
2021/06/01 12:23:30;;;;;;;2.17;0.88;;;24.50;70.70;;;;;;4897758;29;20214;-77
2021/06/01 12:26:06;;;;;;;1.42;0.73;;;24.40;68.70;;;;;;4897045;29;20238;-73
2021/06/01 12:31:18;;;;;;;0.80;0.70;;;24.30;68.20;;;;;;4897284;29;20213;-79
2021/06/01 12:33:58;;;;;;;1.17;0.98;;;24.30;68.60;;;;;;4892332;29;20721;-77
2021/06/01 12:42:35;;;;;;;1.15;1.00;;;24.70;69.30;;;;;;4879562;29;20245;-86
2021/06/01 12:45:02;;;;;;;1.00;0.90;;;24.50;69.20;;;;;;4880072;29;20581;-75
2021/06/01 13:21:41;;;;;;;0.93;0.77;;;24.70;68.20;;;;;;4898571;29;20260;-80
2021/06/01 13:30:19;;;;;;;0.90;0.85;;;24.70;68.60;;;;;;4885027;29;20222;-76
2021/06/01 13:38:33;;;;;;;1.00;0.80;;;24.90;70.50;;;;;;4901390;29;20205;-78
2021/06/01 13:46:40;;;;;;;1.10;0.90;;;24.90;68.50;;;;;;4898384;29;20229;-74
2021/06/01 13:49:15;;;;;;;1.20;1.10;;;24.60;69.20;;;;;;4898465;29;20495;-74
2021/06/01 13:51:53;;;;;;;1.77;0.90;;;24.70;71.50;;;;;;4897923;29;20273;-74
2021/06/01 13:57:09;;;;;;;1.10;0.93;;;24.60;70.90;;;;;;4898013;29;20286;-74
2021/06/01 13:59:41;;;;;;;1.40;0.77;;;24.80;70.20;;;;;;4897691;29;20233;-77
2021/06/01 14:11:19;;;;;;;1.55;0.90;;;25.10;69.40;;;;;;4897801;29;20225;-77
2021/06/01 14:30:28;;;;;;;1.38;1.00;;;25.40;68.40;;;;;;4899404;29;20213;-72
2021/06/01 14:36:03;;;;;;;0.85;0.80;;;25.50;68.60;;;;;;4900057;29;20258;-79
2021/06/01 15:09:38;;;;;;;2.13;0.90;;;25.60;67.70;;;;;;4893331;29;20270;-72
2021/06/01 15:28:55;;;;;;;2.13;1.10;;;25.40;68.30;;;;;;4897821;29;20733;-72
2021/06/01 15:48:12;;;;;;;0.98;0.88;;;25.50;68.50;;;;;;4878966;29;20263;-72
2021/06/01 15:50:42;;;;;;;1.13;1.00;;;25.60;68.20;;;;;;4879181;29;20741;-72
2021/06/01 15:53:37;;;;;;;0.98;0.85;;;25.60;68.80;;;;;;4891860;29;20234;-72
2021/06/01 16:13:17;;;;;;;3.70;0.80;;;25.30;70.80;;;;;;4897444;29;20262;-73
2021/06/01 16:21:27;;;;;;;1.13;1.00;;;25.50;70.90;;;;;;4897399;29;20618;-73
2021/06/01 16:29:43;;;;;;;1.15;0.95;;;25.50;70.80;;;;;;4897516;29;20297;-73
2021/06/01 16:43:32;;;;;;;1.33;1.23;;;25.50;70.10;;;;;;4865879;29;20222;-72
2021/06/01 17:05:19;;;;;;;2.72;1.10;;;25.20;74.10;;;;;;4900646;29;20258;-75
2021/06/01 17:08:15;;;;;;;2.55;0.93;;;25.10;74.20;;;;;;4900199;29;20237;-76
2021/06/01 17:11:05;;;;;;;1.70;1.10;;;25.10;75.00;;;;;;4899915;29;20224;-80
2021/06/01 17:13:35;;;;;;;1.67;1.10;;;25.00;74.90;;;;;;4900083;29;20234;-72
2021/06/01 17:16:02;;;;;;;1.40;1.00;;;25.10;75.10;;;;;;4900389;29;20240;-75
2021/06/01 17:18:50;;;;;;;1.05;0.90;;;25.10;75.70;;;;;;4900411;29;20273;-76
2021/06/01 17:24:23;;;;;;;2.03;1.40;;;25.10;75.20;;;;;;4878949;29;20253;-74
2021/06/01 17:35:14;;;;;;;1.35;0.82;;;25.00;75.40;;;;;;4893184;29;20203;-76
2021/06/01 17:37:41;;;;;;;1.30;1.17;;;24.90;74.20;;;;;;4885291;29;20681;-74
2021/06/01 17:40:13;;;;;;;1.83;1.10;;;24.90;74.20;;;;;;4888497;29;20206;-75
2021/06/01 17:42:48;;;;;;;1.85;1.10;;;24.80;74.20;;;;;;4892446;29;20211;-74
2021/06/01 17:45:17;;;;;;;2.92;1.15;;;24.70;73.60;;;;;;4893399;29;20206;-75
2021/06/01 17:47:49;;;;;;;1.20;1.10;;;24.60;73.50;;;;;;4887925;29;20203;-75
2021/06/01 17:50:15;;;;;;;1.13;0.93;;;24.50;74.30;;;;;;4888748;29;20270;-74
2021/06/01 17:52:44;;;;;;;2.10;0.98;;;24.50;75.40;;;;;;4889057;29;20586;-75
2021/06/01 17:55:16;;;;;;;0.95;0.88;;;24.60;75.20;;;;;;4895368;29;20211;-75
2021/06/01 17:57:43;;;;;;;1.98;1.60;;;24.50;74.80;;;;;;4890644;29;20226;-74
2021/06/01 18:00:12;;;;;;;2.30;1.30;;;24.50;76.30;;;;;;4888665;29;20226;-75
2021/06/01 18:02:39;;;;;;;2.67;0.90;;;24.50;74.70;;;;;;4890737;29;20214;-75
2021/06/01 18:05:08;;;;;;;1.60;1.10;;;24.50;74.80;;;;;;4885454;29;20674;-74
2021/06/01 18:07:38;;;;;;;1.30;1.00;;;24.60;74.00;;;;;;4889104;29;20215;-74
2021/06/01 18:36:21;;;;;;;3.15;1.10;;;24.30;76.50;;;;;;4885161;29;20246;-76
2021/06/01 19:01:27;;;;;;;1.05;0.95;;;23.60;78.40;;;;;;4887533;29;20399;-74
2021/06/01 19:29:16;;;;;;;1.20;1.10;;;23.00;80.50;;;;;;4869481;29;20285;-74
2021/06/01 19:51:20;;;;;;;0.82;0.80;;;22.30;87.50;;;;;;4891727;29;20737;-73
2021/06/01 19:53:49;;;;;;;1.10;1.00;;;22.20;89.30;;;;;;4888784;29;20245;-74
2021/06/01 19:56:17;;;;;;;4.75;1.02;;;22.00;90.10;;;;;;4883290;29;20223;-74
2021/06/01 19:58:43;;;;;;;2.13;1.17;;;21.90;90.40;;;;;;4883147;29;20261;-74
2021/06/01 20:01:12;;;;;;;1.30;1.10;;;21.70;90.80;;;;;;4884049;29;20207;-73
2021/06/01 20:03:40;;;;;;;3.28;1.30;;;21.50;91.30;;;;;;4888090;29;20210;-74
2021/06/01 20:06:09;;;;;;;1.55;1.17;;;21.40;91.60;;;;;;4887767;29;20234;-74
2021/06/01 20:08:36;;;;;;;2.20;1.30;;;21.20;91.80;;;;;;4897917;29;20222;-74
2021/06/01 20:11:04;;;;;;;1.77;1.20;;;21.00;92.10;;;;;;4891912;29;20202;-74
2021/06/01 20:13:30;;;;;;;2.63;1.13;;;20.90;92.30;;;;;;4886259;29;20819;-74
2021/06/01 20:15:56;;;;;;;2.55;1.08;;;20.80;92.70;;;;;;4883998;29;20250;-74
2021/06/01 20:18:32;;;;;;;2.58;1.10;;;20.70;93.10;;;;;;4895286;29;20569;-74
2021/06/01 20:20:58;;;;;;;1.90;1.27;;;20.50;93.80;;;;;;4897227;29;20626;-74
2021/06/01 20:23:25;;;;;;;2.22;1.30;;;20.40;94.00;;;;;;4893968;29;20573;-73
2021/06/01 20:25:54;;;;;;;3.33;1.50;;;20.30;94.40;;;;;;4884438;29;20226;-74
2021/06/01 20:28:27;;;;;;;3.53;1.37;;;20.30;94.50;;;;;;4881766;29;20263;-74
2021/06/01 20:31:00;;;;;;;1.90;1.50;;;20.30;95.00;;;;;;4881348;29;20737;-74
2021/06/01 20:33:28;;;;;;;3.42;1.55;;;20.20;95.50;;;;;;4898940;29;20642;-73
2021/06/01 20:35:55;;;;;;;1.53;1.20;;;20.10;96.00;;;;;;4900236;29;20234;-74
2021/06/01 20:38:26;;;;;;;3.37;1.40;;;19.90;96.10;;;;;;4884122;29;20573;-74
2021/06/01 20:40:53;;;;;;;1.33;1.10;;;19.80;96.70;;;;;;4881297;29;20207;-74
2021/06/01 20:43:21;;;;;;;3.20;1.20;;;19.70;96.70;;;;;;4897411;29;20218;-74
2021/06/01 20:45:49;;;;;;;3.60;1.50;;;19.60;96.80;;;;;;4900773;29;20276;-74
2021/06/01 20:48:18;;;;;;;2.23;1.27;;;19.50;97.50;;;;;;4900621;29;20624;-74
2021/06/01 20:50:46;;;;;;;1.97;1.20;;;19.50;98.30;;;;;;4900769;29;20250;-73
2021/06/01 20:53:13;;;;;;;2.00;1.30;;;19.40;98.90;;;;;;4900692;29;20245;-73
2021/06/01 20:55:40;;;;;;;1.57;1.13;;;19.30;99.10;;;;;;4899521;29;20234;-74
